sensor_id;sensor_type;location;lat;lon;timestamp;P1;durP1;ratioP1;P2;durP2;ratioP2
75009;SDS011;63564;46.840;18.336;2023-04-24T00:02:56;8.23;;;4.93;;
75009;SDS011;63564;46.840;18.336;2023-04-24T00:05:57;9.10;;;5.40;;
75009;SDS011;63564;46.840;18.336;2023-04-24T00:08:59;11.30;;;5.25;;
75009;SDS011;63564;46.840;18.336;2023-04-24T00:12:00;8.50;;;4.78;;
75009;SDS011;63564;46.840;18.336;2023-04-24T00:15:03;9.23;;;4.72;;
75009;SDS011;63564;46.840;18.336;2023-04-24T00:18:05;10.63;;;5.00;;
75009;SDS011;63564;46.840;18.336;2023-04-24T00:21:05;9.50;;;5.20;;
75009;SDS011;63564;46.840;18.336;2023-04-24T00:24:06;9.07;;;5.40;;
75009;SDS011;63564;46.840;18.336;2023-04-24T00:27:08;8.70;;;5.03;;
75009;SDS011;63564;46.840;18.336;2023-04-24T00:30:09;11.60;;;5.80;;
75009;SDS011;63564;46.840;18.336;2023-04-24T00:33:10;8.90;;;4.90;;
75009;SDS011;63564;46.840;18.336;2023-04-24T00:36:10;8.60;;;4.95;;
75009;SDS011;63564;46.840;18.336;2023-04-24T00:39:10;9.57;;;4.90;;
75009;SDS011;63564;46.840;18.336;2023-04-24T00:42:11;8.70;;;5.53;;
75009;SDS011;63564;46.840;18.336;2023-04-24T00:45:12;9.30;;;5.53;;
75009;SDS011;63564;46.840;18.336;2023-04-24T00:48:13;9.70;;;5.18;;
75009;SDS011;63564;46.840;18.336;2023-04-24T00:51:14;9.80;;;5.22;;
75009;SDS011;63564;46.840;18.336;2023-04-24T00:54:14;8.83;;;5.10;;
75009;SDS011;63564;46.840;18.336;2023-04-24T00:57:15;9.50;;;5.03;;
75009;SDS011;63564;46.840;18.336;2023-04-24T01:00:16;8.17;;;5.20;;
75009;SDS011;63564;46.840;18.336;2023-04-24T01:03:17;8.60;;;5.00;;
75009;SDS011;63564;46.840;18.336;2023-04-24T01:06:18;9.63;;;5.30;;
75009;SDS011;63564;46.840;18.336;2023-04-24T01:09:19;10.68;;;5.03;;
75009;SDS011;63564;46.840;18.336;2023-04-24T01:12:23;9.52;;;5.32;;
75009;SDS011;63564;46.840;18.336;2023-04-24T01:15:23;9.10;;;5.43;;
75009;SDS011;63564;46.840;18.336;2023-04-24T01:18:23;9.70;;;5.27;;
75009;SDS011;63564;46.840;18.336;2023-04-24T01:21:25;8.90;;;4.80;;
75009;SDS011;63564;46.840;18.336;2023-04-24T01:24:28;8.02;;;5.20;;
75009;SDS011;63564;46.840;18.336;2023-04-24T01:27:29;10.07;;;5.25;;
75009;SDS011;63564;46.840;18.336;2023-04-24T01:30:30;9.30;;;5.60;;
75009;SDS011;63564;46.840;18.336;2023-04-24T01:33:31;9.17;;;5.60;;
75009;SDS011;63564;46.840;18.336;2023-04-24T01:36:31;8.93;;;5.13;;
75009;SDS011;63564;46.840;18.336;2023-04-24T01:39:33;10.65;;;5.38;;
75009;SDS011;63564;46.840;18.336;2023-04-24T01:42:34;9.33;;;5.67;;
75009;SDS011;63564;46.840;18.336;2023-04-24T01:45:34;9.20;;;5.00;;
75009;SDS011;63564;46.840;18.336;2023-04-24T01:48:35;8.80;;;5.33;;
75009;SDS011;63564;46.840;18.336;2023-04-24T01:51:35;9.33;;;5.57;;
75009;SDS011;63564;46.840;18.336;2023-04-24T01:54:36;10.07;;;5.68;;
75009;SDS011;63564;46.840;18.336;2023-04-24T01:57:36;10.00;;;6.00;;
75009;SDS011;63564;46.840;18.336;2023-04-24T02:00:37;10.97;;;5.47;;
75009;SDS011;63564;46.840;18.336;2023-04-24T02:03:37;9.13;;;5.57;;
75009;SDS011;63564;46.840;18.336;2023-04-24T02:06:37;9.80;;;5.77;;
75009;SDS011;63564;46.840;18.336;2023-04-24T02:09:38;10.20;;;5.85;;
75009;SDS011;63564;46.840;18.336;2023-04-24T02:12:38;9.90;;;5.50;;
75009;SDS011;63564;46.840;18.336;2023-04-24T02:15:39;8.67;;;5.30;;
75009;SDS011;63564;46.840;18.336;2023-04-24T02:18:39;10.43;;;5.33;;
75009;SDS011;63564;46.840;18.336;2023-04-24T02:21:39;8.43;;;5.23;;
75009;SDS011;63564;46.840;18.336;2023-04-24T02:24:40;8.73;;;5.37;;
75009;SDS011;63564;46.840;18.336;2023-04-24T02:27:40;8.68;;;5.05;;
75009;SDS011;63564;46.840;18.336;2023-04-24T02:30:41;11.07;;;5.57;;
75009;SDS011;63564;46.840;18.336;2023-04-24T02:33:41;10.63;;;5.53;;
75009;SDS011;63564;46.840;18.336;2023-04-24T02:36:42;10.13;;;5.50;;
75009;SDS011;63564;46.840;18.336;2023-04-24T02:39:42;9.63;;;5.50;;
75009;SDS011;63564;46.840;18.336;2023-04-24T02:42:42;9.50;;;5.30;;
75009;SDS011;63564;46.840;18.336;2023-04-24T02:45:43;10.00;;;5.38;;
75009;SDS011;63564;46.840;18.336;2023-04-24T02:48:43;9.60;;;5.23;;
75009;SDS011;63564;46.840;18.336;2023-04-24T02:51:43;10.40;;;5.67;;
75009;SDS011;63564;46.840;18.336;2023-04-24T02:54:44;9.67;;;5.63;;
75009;SDS011;63564;46.840;18.336;2023-04-24T02:57:44;9.67;;;5.20;;
75009;SDS011;63564;46.840;18.336;2023-04-24T03:00:45;9.27;;;5.80;;
75009;SDS011;63564;46.840;18.336;2023-04-24T03:03:45;9.35;;;5.57;;
75009;SDS011;63564;46.840;18.336;2023-04-24T03:06:46;8.40;;;5.17;;
75009;SDS011;63564;46.840;18.336;2023-04-24T03:09:46;10.10;;;5.43;;
75009;SDS011;63564;46.840;18.336;2023-04-24T03:12:48;10.45;;;5.80;;
75009;SDS011;63564;46.840;18.336;2023-04-24T03:15:48;11.23;;;5.57;;
75009;SDS011;63564;46.840;18.336;2023-04-24T03:18:48;10.30;;;5.30;;
75009;SDS011;63564;46.840;18.336;2023-04-24T03:21:49;10.23;;;5.18;;
75009;SDS011;63564;46.840;18.336;2023-04-24T03:24:49;9.83;;;5.67;;
75009;SDS011;63564;46.840;18.336;2023-04-24T03:27:50;9.53;;;5.63;;
75009;SDS011;63564;46.840;18.336;2023-04-24T03:30:50;9.93;;;5.73;;
75009;SDS011;63564;46.840;18.336;2023-04-24T03:33:52;9.40;;;5.55;;
75009;SDS011;63564;46.840;18.336;2023-04-24T03:36:52;9.13;;;5.63;;
75009;SDS011;63564;46.840;18.336;2023-04-24T03:39:52;11.53;;;5.70;;
75009;SDS011;63564;46.840;18.336;2023-04-24T03:42:53;10.07;;;5.47;;
75009;SDS011;63564;46.840;18.336;2023-04-24T03:45:53;9.68;;;5.55;;
75009;SDS011;63564;46.840;18.336;2023-04-24T03:48:53;10.90;;;5.30;;
75009;SDS011;63564;46.840;18.336;2023-04-24T03:51:54;9.03;;;5.57;;
75009;SDS011;63564;46.840;18.336;2023-04-24T03:54:54;9.90;;;5.20;;
75009;SDS011;63564;46.840;18.336;2023-04-24T03:57:55;8.57;;;5.20;;
75009;SDS011;63564;46.840;18.336;2023-04-24T04:00:55;11.43;;;5.53;;
75009;SDS011;63564;46.840;18.336;2023-04-24T04:03:58;9.50;;;4.97;;
75009;SDS011;63564;46.840;18.336;2023-04-24T04:06:58;9.73;;;5.03;;
75009;SDS011;63564;46.840;18.336;2023-04-24T04:10:01;8.93;;;4.43;;
75009;SDS011;63564;46.840;18.336;2023-04-24T04:13:01;9.23;;;4.90;;
75009;SDS011;63564;46.840;18.336;2023-04-24T04:16:02;8.07;;;4.63;;
75009;SDS011;63564;46.840;18.336;2023-04-24T04:19:02;8.67;;;4.70;;
75009;SDS011;63564;46.840;18.336;2023-04-24T04:22:03;8.53;;;4.50;;
75009;SDS011;63564;46.840;18.336;2023-04-24T04:25:03;9.50;;;4.80;;
75009;SDS011;63564;46.840;18.336;2023-04-24T04:28:04;8.50;;;4.73;;
75009;SDS011;63564;46.840;18.336;2023-04-24T04:31:05;8.70;;;4.95;;
75009;SDS011;63564;46.840;18.336;2023-04-24T04:34:07;7.75;;;4.80;;
75009;SDS011;63564;46.840;18.336;2023-04-24T04:37:08;8.50;;;4.50;;
75009;SDS011;63564;46.840;18.336;2023-04-24T04:40:08;8.20;;;4.33;;
75009;SDS011;63564;46.840;18.336;2023-04-24T04:43:12;9.18;;;4.68;;
75009;SDS011;63564;46.840;18.336;2023-04-24T04:46:15;8.00;;;4.40;;
75009;SDS011;63564;46.840;18.336;2023-04-24T04:49:16;7.93;;;4.20;;
75009;SDS011;63564;46.840;18.336;2023-04-24T04:52:17;7.75;;;4.20;;
75009;SDS011;63564;46.840;18.336;2023-04-24T04:55:18;7.20;;;4.13;;
75009;SDS011;63564;46.840;18.336;2023-04-24T04:58:19;9.25;;;4.82;;
75009;SDS011;63564;46.840;18.336;2023-04-24T05:01:20;9.07;;;4.53;;
75009;SDS011;63564;46.840;18.336;2023-04-24T05:04:21;8.05;;;4.82;;
75009;SDS011;63564;46.840;18.336;2023-04-24T05:07:21;8.60;;;4.80;;
75009;SDS011;63564;46.840;18.336;2023-04-24T05:10:22;8.23;;;4.83;;
75009;SDS011;63564;46.840;18.336;2023-04-24T05:13:22;8.73;;;4.57;;
75009;SDS011;63564;46.840;18.336;2023-04-24T05:16:22;9.48;;;4.68;;
75009;SDS011;63564;46.840;18.336;2023-04-24T05:19:23;7.67;;;4.43;;
75009;SDS011;63564;46.840;18.336;2023-04-24T05:22:23;7.80;;;4.53;;
75009;SDS011;63564;46.840;18.336;2023-04-24T05:25:24;8.90;;;4.97;;
75009;SDS011;63564;46.840;18.336;2023-04-24T05:28:24;8.17;;;4.47;;
75009;SDS011;63564;46.840;18.336;2023-04-24T05:31:28;7.85;;;4.20;;
75009;SDS011;63564;46.840;18.336;2023-04-24T05:34:28;10.97;;;4.90;;
75009;SDS011;63564;46.840;18.336;2023-04-24T05:37:29;7.80;;;4.57;;
75009;SDS011;63564;46.840;18.336;2023-04-24T05:40:29;9.07;;;4.43;;
75009;SDS011;63564;46.840;18.336;2023-04-24T05:43:30;7.23;;;4.30;;
75009;SDS011;63564;46.840;18.336;2023-04-24T05:46:30;8.93;;;4.37;;
75009;SDS011;63564;46.840;18.336;2023-04-24T05:49:30;7.53;;;4.27;;
75009;SDS011;63564;46.840;18.336;2023-04-24T05:52:31;6.63;;;4.00;;
75009;SDS011;63564;46.840;18.336;2023-04-24T05:55:31;8.63;;;4.47;;
75009;SDS011;63564;46.840;18.336;2023-04-24T05:58:31;7.65;;;4.30;;
75009;SDS011;63564;46.840;18.336;2023-04-24T06:01:32;7.50;;;4.25;;
75009;SDS011;63564;46.840;18.336;2023-04-24T06:04:32;7.73;;;4.23;;
75009;SDS011;63564;46.840;18.336;2023-04-24T06:07:33;7.80;;;4.13;;
75009;SDS011;63564;46.840;18.336;2023-04-24T06:10:33;9.43;;;4.40;;
75009;SDS011;63564;46.840;18.336;2023-04-24T06:13:34;7.60;;;4.27;;
75009;SDS011;63564;46.840;18.336;2023-04-24T06:16:34;8.67;;;4.70;;
75009;SDS011;63564;46.840;18.336;2023-04-24T06:19:35;8.27;;;4.40;;
75009;SDS011;63564;46.840;18.336;2023-04-24T06:22:35;8.57;;;4.53;;
75009;SDS011;63564;46.840;18.336;2023-04-24T06:25:35;7.40;;;4.00;;
75009;SDS011;63564;46.840;18.336;2023-04-24T06:28:36;9.90;;;4.10;;
75009;SDS011;63564;46.840;18.336;2023-04-24T06:31:36;9.02;;;4.30;;
75009;SDS011;63564;46.840;18.336;2023-04-24T06:34:36;8.30;;;4.10;;
75009;SDS011;63564;46.840;18.336;2023-04-24T06:37:38;7.43;;;3.97;;
75009;SDS011;63564;46.840;18.336;2023-04-24T06:40:39;7.45;;;3.85;;
75009;SDS011;63564;46.840;18.336;2023-04-24T06:43:40;7.57;;;3.93;;
75009;SDS011;63564;46.840;18.336;2023-04-24T06:46:41;7.38;;;4.28;;
75009;SDS011;63564;46.840;18.336;2023-04-24T06:49:42;8.97;;;4.63;;
75009;SDS011;63564;46.840;18.336;2023-04-24T06:52:42;7.88;;;3.85;;
75009;SDS011;63564;46.840;18.336;2023-04-24T06:55:43;7.37;;;3.77;;
75009;SDS011;63564;46.840;18.336;2023-04-24T06:58:46;7.38;;;4.03;;
75009;SDS011;63564;46.840;18.336;2023-04-24T07:01:46;7.20;;;4.00;;
75009;SDS011;63564;46.840;18.336;2023-04-24T07:04:46;8.23;;;3.93;;
75009;SDS011;63564;46.840;18.336;2023-04-24T07:07:47;7.72;;;3.97;;
75009;SDS011;63564;46.840;18.336;2023-04-24T07:10:49;7.23;;;3.97;;
75009;SDS011;63564;46.840;18.336;2023-04-24T07:13:50;7.40;;;3.70;;
75009;SDS011;63564;46.840;18.336;2023-04-24T07:16:51;7.10;;;3.83;;
75009;SDS011;63564;46.840;18.336;2023-04-24T07:19:51;8.25;;;3.67;;
75009;SDS011;63564;46.840;18.336;2023-04-24T07:22:52;7.90;;;3.97;;
75009;SDS011;63564;46.840;18.336;2023-04-24T07:25:53;8.40;;;3.80;;
75009;SDS011;63564;46.840;18.336;2023-04-24T07:28:54;8.23;;;4.53;;
75009;SDS011;63564;46.840;18.336;2023-04-24T07:31:55;8.97;;;3.60;;
75009;SDS011;63564;46.840;18.336;2023-04-24T07:34:56;10.75;;;3.78;;
75009;SDS011;63564;46.840;18.336;2023-04-24T07:37:56;8.57;;;4.30;;
75009;SDS011;63564;46.840;18.336;2023-04-24T07:40:57;7.25;;;4.13;;
75009;SDS011;63564;46.840;18.336;2023-04-24T07:43:58;8.63;;;4.73;;
75009;SDS011;63564;46.840;18.336;2023-04-24T07:46:58;9.97;;;4.53;;
75009;SDS011;63564;46.840;18.336;2023-04-24T07:49:59;6.17;;;3.33;;
75009;SDS011;63564;46.840;18.336;2023-04-24T07:52:59;7.53;;;3.57;;
75009;SDS011;63564;46.840;18.336;2023-04-24T07:56:00;6.53;;;3.60;;
75009;SDS011;63564;46.840;18.336;2023-04-24T07:59:00;6.93;;;3.40;;
75009;SDS011;63564;46.840;18.336;2023-04-24T08:02:01;7.10;;;3.40;;
75009;SDS011;63564;46.840;18.336;2023-04-24T08:05:01;6.03;;;3.33;;
75009;SDS011;63564;46.840;18.336;2023-04-24T08:08:03;10.25;;;3.55;;
75009;SDS011;63564;46.840;18.336;2023-04-24T08:11:03;6.67;;;3.47;;
75009;SDS011;63564;46.840;18.336;2023-04-24T08:14:04;7.93;;;3.58;;
75009;SDS011;63564;46.840;18.336;2023-04-24T08:17:05;7.53;;;3.27;;
75009;SDS011;63564;46.840;18.336;2023-04-24T08:20:06;5.93;;;3.20;;
75009;SDS011;63564;46.840;18.336;2023-04-24T08:23:13;6.55;;;3.10;;
75009;SDS011;63564;46.840;18.336;2023-04-24T08:26:13;8.53;;;3.80;;
75009;SDS011;63564;46.840;18.336;2023-04-24T08:29:14;5.75;;;2.92;;
75009;SDS011;63564;46.840;18.336;2023-04-24T08:32:14;5.73;;;3.13;;
75009;SDS011;63564;46.840;18.336;2023-04-24T08:35:15;6.43;;;3.20;;
75009;SDS011;63564;46.840;18.336;2023-04-24T08:38:15;5.83;;;3.27;;
75009;SDS011;63564;46.840;18.336;2023-04-24T08:41:17;6.28;;;3.30;;
75009;SDS011;63564;46.840;18.336;2023-04-24T08:44:18;5.53;;;3.20;;
75009;SDS011;63564;46.840;18.336;2023-04-24T08:47:19;6.10;;;3.28;;
75009;SDS011;63564;46.840;18.336;2023-04-24T08:50:21;6.67;;;3.20;;
75009;SDS011;63564;46.840;18.336;2023-04-24T08:53:22;5.90;;;3.20;;
75009;SDS011;63564;46.840;18.336;2023-04-24T08:56:25;7.30;;;3.20;;
75009;SDS011;63564;46.840;18.336;2023-04-24T08:59:30;6.10;;;2.95;;
75009;SDS011;63564;46.840;18.336;2023-04-24T09:02:31;5.93;;;3.07;;
75009;SDS011;63564;46.840;18.336;2023-04-24T09:05:34;6.65;;;3.00;;
75009;SDS011;63564;46.840;18.336;2023-04-24T09:08:34;7.23;;;3.20;;
75009;SDS011;63564;46.840;18.336;2023-04-24T09:11:36;5.25;;;2.40;;
75009;SDS011;63564;46.840;18.336;2023-04-24T09:14:37;5.22;;;2.70;;
75009;SDS011;63564;46.840;18.336;2023-04-24T09:17:44;4.50;;;2.47;;
75009;SDS011;63564;46.840;18.336;2023-04-24T09:21:19;4.73;;;2.70;;
75009;SDS011;63564;46.840;18.336;2023-04-24T09:24:16;5.18;;;2.40;;
75009;SDS011;63564;46.840;18.336;2023-04-24T09:27:22;6.20;;;2.60;;
75009;SDS011;63564;46.840;18.336;2023-04-24T09:30:23;6.25;;;3.10;;
75009;SDS011;63564;46.840;18.336;2023-04-24T09:33:24;4.83;;;2.50;;
75009;SDS011;63564;46.840;18.336;2023-04-24T09:36:28;5.35;;;2.90;;
75009;SDS011;63564;46.840;18.336;2023-04-24T09:39:39;5.23;;;2.60;;
75009;SDS011;63564;46.840;18.336;2023-04-24T09:42:43;6.93;;;2.50;;
75009;SDS011;63564;46.840;18.336;2023-04-24T09:45:44;4.67;;;2.43;;
75009;SDS011;63564;46.840;18.336;2023-04-24T09:48:44;6.03;;;2.73;;
75009;SDS011;63564;46.840;18.336;2023-04-24T09:51:45;6.47;;;2.50;;
75009;SDS011;63564;46.840;18.336;2023-04-24T09:54:47;5.13;;;2.80;;
75009;SDS011;63564;46.840;18.336;2023-04-24T09:58:00;5.18;;;2.90;;
75009;SDS011;63564;46.840;18.336;2023-04-24T10:01:01;4.75;;;2.42;;
75009;SDS011;63564;46.840;18.336;2023-04-24T10:04:01;6.00;;;2.60;;
75009;SDS011;63564;46.840;18.336;2023-04-24T10:07:02;7.30;;;2.70;;
75009;SDS011;63564;46.840;18.336;2023-04-24T10:10:06;5.03;;;2.40;;
75009;SDS011;63564;46.840;18.336;2023-04-24T10:13:08;5.47;;;2.78;;
75009;SDS011;63564;46.840;18.336;2023-04-24T10:16:10;6.37;;;2.60;;
75009;SDS011;63564;46.840;18.336;2023-04-24T10:19:10;7.20;;;2.92;;
75009;SDS011;63564;46.840;18.336;2023-04-24T10:22:13;5.53;;;2.27;;
75009;SDS011;63564;46.840;18.336;2023-04-24T10:25:19;6.53;;;2.40;;
75009;SDS011;63564;46.840;18.336;2023-04-24T10:28:21;5.18;;;2.30;;
75009;SDS011;63564;46.840;18.336;2023-04-24T10:31:24;5.32;;;2.60;;
75009;SDS011;63564;46.840;18.336;2023-04-24T10:34:25;6.47;;;3.20;;
75009;SDS011;63564;46.840;18.336;2023-04-24T10:37:25;5.80;;;2.80;;
75009;SDS011;63564;46.840;18.336;2023-04-24T10:40:29;5.37;;;2.80;;
75009;SDS011;63564;46.840;18.336;2023-04-24T10:43:33;6.07;;;2.90;;
75009;SDS011;63564;46.840;18.336;2023-04-24T10:46:35;6.03;;;2.70;;
75009;SDS011;63564;46.840;18.336;2023-04-24T10:49:36;6.18;;;2.95;;
75009;SDS011;63564;46.840;18.336;2023-04-24T10:52:46;6.00;;;3.27;;
75009;SDS011;63564;46.840;18.336;2023-04-24T10:55:51;6.03;;;2.70;;
75009;SDS011;63564;46.840;18.336;2023-04-24T10:58:57;6.80;;;3.10;;
75009;SDS011;63564;46.840;18.336;2023-04-24T11:01:58;7.40;;;2.87;;
75009;SDS011;63564;46.840;18.336;2023-04-24T11:04:58;4.90;;;2.43;;
75009;SDS011;63564;46.840;18.336;2023-04-24T11:08:13;6.10;;;2.80;;
75009;SDS011;63564;46.840;18.336;2023-04-24T11:11:16;6.07;;;3.15;;
75009;SDS011;63564;46.840;18.336;2023-04-24T11:14:18;7.05;;;3.50;;
75009;SDS011;63564;46.840;18.336;2023-04-24T11:17:35;6.57;;;2.80;;
75009;SDS011;63564;46.840;18.336;2023-04-24T11:20:38;7.40;;;3.50;;
75009;SDS011;63564;46.840;18.336;2023-04-24T11:23:42;6.10;;;2.87;;
75009;SDS011;63564;46.840;18.336;2023-04-24T11:26:42;5.97;;;3.08;;
75009;SDS011;63564;46.840;18.336;2023-04-24T11:29:49;6.43;;;3.10;;
75009;SDS011;63564;46.840;18.336;2023-04-24T11:33:02;5.93;;;3.00;;
75009;SDS011;63564;46.840;18.336;2023-04-24T11:36:04;5.95;;;2.95;;
75009;SDS011;63564;46.840;18.336;2023-04-24T11:39:05;7.05;;;3.20;;
75009;SDS011;63564;46.840;18.336;2023-04-24T11:42:06;6.00;;;3.00;;
75009;SDS011;63564;46.840;18.336;2023-04-24T11:48:09;6.25;;;3.03;;
75009;SDS011;63564;46.840;18.336;2023-04-24T11:51:11;6.73;;;2.93;;
75009;SDS011;63564;46.840;18.336;2023-04-24T11:54:12;6.50;;;3.30;;
75009;SDS011;63564;46.840;18.336;2023-04-24T11:57:12;5.30;;;2.90;;
75009;SDS011;63564;46.840;18.336;2023-04-24T12:00:16;6.57;;;2.67;;
75009;SDS011;63564;46.840;18.336;2023-04-24T12:03:21;5.80;;;2.78;;
75009;SDS011;63564;46.840;18.336;2023-04-24T12:06:21;5.37;;;2.73;;
75009;SDS011;63564;46.840;18.336;2023-04-24T12:09:22;6.27;;;2.90;;
75009;SDS011;63564;46.840;18.336;2023-04-24T12:12:24;5.47;;;2.90;;
75009;SDS011;63564;46.840;18.336;2023-04-24T12:15:26;6.18;;;2.63;;
75009;SDS011;63564;46.840;18.336;2023-04-24T12:18:27;5.65;;;2.85;;
75009;SDS011;63564;46.840;18.336;2023-04-24T12:21:27;5.47;;;2.80;;
75009;SDS011;63564;46.840;18.336;2023-04-24T12:24:30;5.80;;;2.55;;
75009;SDS011;63564;46.840;18.336;2023-04-24T12:27:31;7.23;;;3.10;;
75009;SDS011;63564;46.840;18.336;2023-04-24T12:30:48;6.15;;;2.67;;
75009;SDS011;63564;46.840;18.336;2023-04-24T12:33:48;6.28;;;2.60;;
75009;SDS011;63564;46.840;18.336;2023-04-24T12:36:49;5.10;;;2.60;;
75009;SDS011;63564;46.840;18.336;2023-04-24T12:40:08;5.43;;;2.60;;
75009;SDS011;63564;46.840;18.336;2023-04-24T12:43:13;5.78;;;2.80;;
75009;SDS011;63564;46.840;18.336;2023-04-24T12:46:18;5.95;;;2.63;;
75009;SDS011;63564;46.840;18.336;2023-04-24T12:49:18;7.20;;;3.03;;
75009;SDS011;63564;46.840;18.336;2023-04-24T12:52:19;6.67;;;2.90;;
75009;SDS011;63564;46.840;18.336;2023-04-24T12:55:23;7.37;;;2.90;;
75009;SDS011;63564;46.840;18.336;2023-04-24T12:58:24;6.03;;;2.90;;
75009;SDS011;63564;46.840;18.336;2023-04-24T13:01:24;6.87;;;3.10;;
75009;SDS011;63564;46.840;18.336;2023-04-24T13:04:24;9.23;;;3.83;;
75009;SDS011;63564;46.840;18.336;2023-04-24T13:07:25;6.73;;;3.57;;
75009;SDS011;63564;46.840;18.336;2023-04-24T13:10:26;6.00;;;2.92;;
75009;SDS011;63564;46.840;18.336;2023-04-24T13:13:27;6.70;;;3.10;;
75009;SDS011;63564;46.840;18.336;2023-04-24T13:16:28;6.97;;;3.20;;
75009;SDS011;63564;46.840;18.336;2023-04-24T13:19:28;6.03;;;3.23;;
75009;SDS011;63564;46.840;18.336;2023-04-24T13:22:29;7.90;;;2.90;;
75009;SDS011;63564;46.840;18.336;2023-04-24T13:25:34;6.47;;;3.03;;
75009;SDS011;63564;46.840;18.336;2023-04-24T13:28:35;7.83;;;2.80;;
75009;SDS011;63564;46.840;18.336;2023-04-24T13:31:35;7.63;;;3.40;;
75009;SDS011;63564;46.840;18.336;2023-04-24T13:34:36;5.68;;;2.97;;
75009;SDS011;63564;46.840;18.336;2023-04-24T13:37:36;6.47;;;2.90;;
75009;SDS011;63564;46.840;18.336;2023-04-24T13:40:37;6.20;;;2.87;;
75009;SDS011;63564;46.840;18.336;2023-04-24T13:43:37;7.27;;;2.93;;
75009;SDS011;63564;46.840;18.336;2023-04-24T13:46:37;6.50;;;3.03;;
75009;SDS011;63564;46.840;18.336;2023-04-24T13:49:38;6.77;;;3.30;;
75009;SDS011;63564;46.840;18.336;2023-04-24T13:52:38;7.03;;;3.20;;
75009;SDS011;63564;46.840;18.336;2023-04-24T13:55:39;5.73;;;2.90;;
75009;SDS011;63564;46.840;18.336;2023-04-24T13:58:40;7.87;;;3.20;;
75009;SDS011;63564;46.840;18.336;2023-04-24T14:01:40;7.17;;;3.10;;
75009;SDS011;63564;46.840;18.336;2023-04-24T14:04:41;5.70;;;2.90;;
75009;SDS011;63564;46.840;18.336;2023-04-24T14:07:41;6.23;;;2.93;;
75009;SDS011;63564;46.840;18.336;2023-04-24T14:10:42;6.40;;;3.25;;
75009;SDS011;63564;46.840;18.336;2023-04-24T14:13:43;7.00;;;2.90;;
75009;SDS011;63564;46.840;18.336;2023-04-24T14:16:43;6.50;;;3.00;;
75009;SDS011;63564;46.840;18.336;2023-04-24T14:19:43;5.77;;;2.93;;
75009;SDS011;63564;46.840;18.336;2023-04-24T14:22:44;5.63;;;3.00;;
75009;SDS011;63564;46.840;18.336;2023-04-24T14:25:44;6.23;;;3.07;;
75009;SDS011;63564;46.840;18.336;2023-04-24T14:28:45;9.47;;;3.00;;
75009;SDS011;63564;46.840;18.336;2023-04-24T14:31:45;7.20;;;3.63;;
75009;SDS011;63564;46.840;18.336;2023-04-24T14:34:45;6.75;;;3.35;;
75009;SDS011;63564;46.840;18.336;2023-04-24T14:37:46;8.43;;;3.80;;
75009;SDS011;63564;46.840;18.336;2023-04-24T14:40:48;8.50;;;3.53;;
75009;SDS011;63564;46.840;18.336;2023-04-24T14:43:48;8.30;;;3.42;;
75009;SDS011;63564;46.840;18.336;2023-04-24T14:46:49;7.70;;;3.63;;
75009;SDS011;63564;46.840;18.336;2023-04-24T14:49:49;7.60;;;3.53;;
75009;SDS011;63564;46.840;18.336;2023-04-24T14:52:50;8.37;;;3.73;;
75009;SDS011;63564;46.840;18.336;2023-04-24T14:55:50;8.05;;;3.97;;
75009;SDS011;63564;46.840;18.336;2023-04-24T14:58:51;7.85;;;3.70;;
75009;SDS011;63564;46.840;18.336;2023-04-24T15:01:51;10.57;;;4.03;;
75009;SDS011;63564;46.840;18.336;2023-04-24T15:04:52;8.82;;;4.47;;
75009;SDS011;63564;46.840;18.336;2023-04-24T15:07:53;10.07;;;5.50;;
75009;SDS011;63564;46.840;18.336;2023-04-24T15:10:53;7.53;;;4.27;;
75009;SDS011;63564;46.840;18.336;2023-04-24T15:13:54;7.77;;;4.20;;
75009;SDS011;63564;46.840;18.336;2023-04-24T15:16:54;6.60;;;3.40;;
75009;SDS011;63564;46.840;18.336;2023-04-24T15:19:55;5.43;;;2.53;;
75009;SDS011;63564;46.840;18.336;2023-04-24T15:22:55;4.03;;;2.30;;
75009;SDS011;63564;46.840;18.336;2023-04-24T15:25:56;4.00;;;1.88;;
75009;SDS011;63564;46.840;18.336;2023-04-24T15:28:57;3.43;;;1.70;;
75009;SDS011;63564;46.840;18.336;2023-04-24T15:31:58;4.70;;;2.00;;
75009;SDS011;63564;46.840;18.336;2023-04-24T15:34:58;4.27;;;2.20;;
75009;SDS011;63564;46.840;18.336;2023-04-24T15:37:58;8.33;;;4.00;;
75009;SDS011;63564;46.840;18.336;2023-04-24T15:40:59;4.30;;;1.80;;
75009;SDS011;63564;46.840;18.336;2023-04-24T15:44:00;3.97;;;1.90;;
75009;SDS011;63564;46.840;18.336;2023-04-24T15:47:00;4.60;;;2.10;;
75009;SDS011;63564;46.840;18.336;2023-04-24T15:50:04;4.28;;;1.90;;
75009;SDS011;63564;46.840;18.336;2023-04-24T15:53:08;6.17;;;1.93;;
75009;SDS011;63564;46.840;18.336;2023-04-24T15:56:08;4.15;;;1.95;;
75009;SDS011;63564;46.840;18.336;2023-04-24T15:59:23;3.92;;;1.75;;
75009;SDS011;63564;46.840;18.336;2023-04-24T16:02:23;4.40;;;1.90;;
75009;SDS011;63564;46.840;18.336;2023-04-24T16:05:24;5.20;;;2.10;;
75009;SDS011;63564;46.840;18.336;2023-04-24T16:08:24;4.32;;;2.00;;
75009;SDS011;63564;46.840;18.336;2023-04-24T16:11:25;4.57;;;2.10;;
75009;SDS011;63564;46.840;18.336;2023-04-24T16:14:25;4.23;;;2.00;;
75009;SDS011;63564;46.840;18.336;2023-04-24T16:17:26;5.40;;;2.40;;
75009;SDS011;63564;46.840;18.336;2023-04-24T16:20:26;5.30;;;2.15;;
75009;SDS011;63564;46.840;18.336;2023-04-24T16:23:27;6.20;;;3.33;;
75009;SDS011;63564;46.840;18.336;2023-04-24T16:26:27;4.50;;;1.90;;
75009;SDS011;63564;46.840;18.336;2023-04-24T16:29:28;4.30;;;2.10;;
75009;SDS011;63564;46.840;18.336;2023-04-24T16:32:29;6.25;;;3.00;;
75009;SDS011;63564;46.840;18.336;2023-04-24T16:35:30;6.23;;;2.97;;
75009;SDS011;63564;46.840;18.336;2023-04-24T16:38:30;5.07;;;2.38;;
75009;SDS011;63564;46.840;18.336;2023-04-24T16:41:31;4.35;;;1.90;;
75009;SDS011;63564;46.840;18.336;2023-04-24T16:44:31;4.33;;;1.93;;
75009;SDS011;63564;46.840;18.336;2023-04-24T16:47:31;4.50;;;2.00;;
75009;SDS011;63564;46.840;18.336;2023-04-24T16:50:32;5.07;;;2.30;;
75009;SDS011;63564;46.840;18.336;2023-04-24T16:53:32;4.95;;;2.03;;
75009;SDS011;63564;46.840;18.336;2023-04-24T16:56:33;5.90;;;2.23;;
75009;SDS011;63564;46.840;18.336;2023-04-24T16:59:34;5.10;;;2.10;;
75009;SDS011;63564;46.840;18.336;2023-04-24T17:02:34;5.03;;;2.30;;
75009;SDS011;63564;46.840;18.336;2023-04-24T17:05:35;5.73;;;2.50;;
75009;SDS011;63564;46.840;18.336;2023-04-24T17:08:35;6.20;;;3.20;;
75009;SDS011;63564;46.840;18.336;2023-04-24T17:11:36;8.83;;;3.40;;
75009;SDS011;63564;46.840;18.336;2023-04-24T17:14:36;9.45;;;4.15;;
75009;SDS011;63564;46.840;18.336;2023-04-24T17:17:37;8.03;;;4.03;;
75009;SDS011;63564;46.840;18.336;2023-04-24T17:20:37;7.50;;;3.50;;
75009;SDS011;63564;46.840;18.336;2023-04-24T17:23:38;7.90;;;3.70;;
75009;SDS011;63564;46.840;18.336;2023-04-24T17:26:38;8.07;;;3.60;;
75009;SDS011;63564;46.840;18.336;2023-04-24T17:29:39;11.13;;;4.90;;
75009;SDS011;63564;46.840;18.336;2023-04-24T17:32:40;7.43;;;4.15;;
75009;SDS011;63564;46.840;18.336;2023-04-24T17:35:40;7.20;;;3.03;;
75009;SDS011;63564;46.840;18.336;2023-04-24T17:38:41;5.67;;;2.50;;
75009;SDS011;63564;46.840;18.336;2023-04-24T17:41:42;7.30;;;3.10;;
75009;SDS011;63564;46.840;18.336;2023-04-24T17:44:42;5.70;;;2.80;;
75009;SDS011;63564;46.840;18.336;2023-04-24T17:47:42;6.73;;;3.17;;
75009;SDS011;63564;46.840;18.336;2023-04-24T17:50:44;6.90;;;2.90;;
75009;SDS011;63564;46.840;18.336;2023-04-24T17:53:45;10.27;;;4.07;;
75009;SDS011;63564;46.840;18.336;2023-04-24T17:56:47;7.07;;;3.13;;
75009;SDS011;63564;46.840;18.336;2023-04-24T17:59:48;6.53;;;2.73;;